sensor_id;sensor_type;location;lat;lon;timestamp;P1;durP1;ratioP1;P2;durP2;ratioP2
9082;SDS011;4577;48.704;9.000;2023-05-19T00:00:18;7.43;;;3.10;;
9082;SDS011;4577;48.704;9.000;2023-05-19T00:02:44;7.50;;;3.33;;
9082;SDS011;4577;48.704;9.000;2023-05-19T00:05:10;11.97;;;4.00;;
9082;SDS011;4577;48.704;9.000;2023-05-19T00:07:42;6.13;;;3.40;;
9082;SDS011;4577;48.704;9.000;2023-05-19T00:10:11;7.53;;;2.90;;
9082;SDS011;4577;48.704;9.000;2023-05-19T00:12:37;6.90;;;3.10;;
9082;SDS011;4577;48.704;9.000;2023-05-19T00:15:03;7.20;;;3.20;;
9082;SDS011;4577;48.704;9.000;2023-05-19T00:17:29;7.73;;;3.40;;
9082;SDS011;4577;48.704;9.000;2023-05-19T00:19:54;7.63;;;3.03;;
9082;SDS011;4577;48.704;9.000;2023-05-19T00:22:20;18.87;;;11.47;;
9082;SDS011;4577;48.704;9.000;2023-05-19T00:24:46;12.07;;;4.30;;
9082;SDS011;4577;48.704;9.000;2023-05-19T00:27:12;13.73;;;3.90;;
9082;SDS011;4577;48.704;9.000;2023-05-19T00:29:38;5.73;;;2.97;;
9082;SDS011;4577;48.704;9.000;2023-05-19T00:32:04;7.10;;;3.40;;
9082;SDS011;4577;48.704;9.000;2023-05-19T00:34:30;10.73;;;3.40;;
9082;SDS011;4577;48.704;9.000;2023-05-19T00:36:55;7.37;;;3.47;;
9082;SDS011;4577;48.704;9.000;2023-05-19T00:39:21;8.80;;;3.57;;
9082;SDS011;4577;48.704;9.000;2023-05-19T00:41:46;7.07;;;3.43;;
9082;SDS011;4577;48.704;9.000;2023-05-19T00:44:12;11.50;;;3.03;;
9082;SDS011;4577;48.704;9.000;2023-05-19T00:46:38;6.20;;;3.23;;
9082;SDS011;4577;48.704;9.000;2023-05-19T00:49:05;6.13;;;2.93;;
9082;SDS011;4577;48.704;9.000;2023-05-19T00:51:30;9.00;;;3.40;;
9082;SDS011;4577;48.704;9.000;2023-05-19T00:53:56;11.67;;;3.60;;
9082;SDS011;4577;48.704;9.000;2023-05-19T00:56:22;8.87;;;3.70;;
9082;SDS011;4577;48.704;9.000;2023-05-19T00:58:49;4.83;;;3.07;;
9082;SDS011;4577;48.704;9.000;2023-05-19T01:01:15;10.27;;;3.20;;
9082;SDS011;4577;48.704;9.000;2023-05-19T01:03:45;8.43;;;3.23;;
9082;SDS011;4577;48.704;9.000;2023-05-19T01:06:11;10.23;;;3.20;;
9082;SDS011;4577;48.704;9.000;2023-05-19T01:08:39;6.53;;;3.23;;
9082;SDS011;4577;48.704;9.000;2023-05-19T01:11:05;5.70;;;2.90;;
9082;SDS011;4577;48.704;9.000;2023-05-19T01:13:31;7.00;;;3.10;;
9082;SDS011;4577;48.704;9.000;2023-05-19T01:16:00;5.57;;;3.00;;
9082;SDS011;4577;48.704;9.000;2023-05-19T01:21:45;9.73;;;3.13;;
9082;SDS011;4577;48.704;9.000;2023-05-19T01:24:33;6.30;;;3.17;;
9082;SDS011;4577;48.704;9.000;2023-05-19T01:32:37;6.50;;;2.83;;
9082;SDS011;4577;48.704;9.000;2023-05-19T01:35:05;13.90;;;3.27;;
9082;SDS011;4577;48.704;9.000;2023-05-19T01:37:34;7.10;;;2.90;;
9082;SDS011;4577;48.704;9.000;2023-05-19T01:40:02;6.40;;;3.00;;
9082;SDS011;4577;48.704;9.000;2023-05-19T01:42:29;8.50;;;2.77;;
9082;SDS011;4577;48.704;9.000;2023-05-19T01:45:01;7.47;;;3.20;;
9082;SDS011;4577;48.704;9.000;2023-05-19T01:47:36;11.90;;;3.30;;
9082;SDS011;4577;48.704;9.000;2023-05-19T01:50:03;5.90;;;3.30;;
9082;SDS011;4577;48.704;9.000;2023-05-19T01:52:30;5.50;;;3.00;;
9082;SDS011;4577;48.704;9.000;2023-05-19T01:54:55;7.10;;;3.20;;
9082;SDS011;4577;48.704;9.000;2023-05-19T02:00:29;9.47;;;3.10;;
9082;SDS011;4577;48.704;9.000;2023-05-19T02:05:58;6.80;;;2.80;;
9082;SDS011;4577;48.704;9.000;2023-05-19T02:10:49;6.07;;;3.00;;
9082;SDS011;4577;48.704;9.000;2023-05-19T02:13:19;5.30;;;2.97;;
9082;SDS011;4577;48.704;9.000;2023-05-19T02:15:47;7.53;;;3.00;;
9082;SDS011;4577;48.704;9.000;2023-05-19T02:18:14;7.43;;;2.53;;
9082;SDS011;4577;48.704;9.000;2023-05-19T02:20:43;6.47;;;3.13;;
9082;SDS011;4577;48.704;9.000;2023-05-19T02:23:08;8.00;;;3.00;;
9082;SDS011;4577;48.704;9.000;2023-05-19T02:25:34;7.33;;;3.23;;
9082;SDS011;4577;48.704;9.000;2023-05-19T02:28:00;7.33;;;3.20;;
9082;SDS011;4577;48.704;9.000;2023-05-19T02:30:25;8.20;;;3.43;;
9082;SDS011;4577;48.704;9.000;2023-05-19T02:32:51;6.30;;;2.77;;
9082;SDS011;4577;48.704;9.000;2023-05-19T02:35:18;10.70;;;3.40;;
9082;SDS011;4577;48.704;9.000;2023-05-19T02:37:44;5.97;;;3.13;;
9082;SDS011;4577;48.704;9.000;2023-05-19T02:40:10;10.23;;;3.30;;
9082;SDS011;4577;48.704;9.000;2023-05-19T02:42:36;7.93;;;3.20;;
9082;SDS011;4577;48.704;9.000;2023-05-19T02:45:01;6.30;;;3.10;;
9082;SDS011;4577;48.704;9.000;2023-05-19T02:47:27;7.63;;;3.60;;
9082;SDS011;4577;48.704;9.000;2023-05-19T02:49:53;11.10;;;3.37;;
9082;SDS011;4577;48.704;9.000;2023-05-19T02:52:18;9.00;;;3.03;;
9082;SDS011;4577;48.704;9.000;2023-05-19T02:54:44;9.50;;;2.90;;
9082;SDS011;4577;48.704;9.000;2023-05-19T02:57:10;7.00;;;3.10;;
9082;SDS011;4577;48.704;9.000;2023-05-19T02:59:35;8.70;;;3.50;;
9082;SDS011;4577;48.704;9.000;2023-05-19T03:02:01;24.17;;;3.40;;
9082;SDS011;4577;48.704;9.000;2023-05-19T03:04:27;5.57;;;3.20;;
9082;SDS011;4577;48.704;9.000;2023-05-19T03:06:54;4.90;;;3.17;;
9082;SDS011;4577;48.704;9.000;2023-05-19T03:09:19;14.07;;;3.30;;
9082;SDS011;4577;48.704;9.000;2023-05-19T03:11:45;7.43;;;3.27;;
9082;SDS011;4577;48.704;9.000;2023-05-19T03:14:11;3.90;;;2.80;;
9082;SDS011;4577;48.704;9.000;2023-05-19T03:16:38;10.10;;;3.50;;
9082;SDS011;4577;48.704;9.000;2023-05-19T03:19:07;9.57;;;3.33;;
9082;SDS011;4577;48.704;9.000;2023-05-19T03:21:33;7.33;;;3.40;;
9082;SDS011;4577;48.704;9.000;2023-05-19T03:23:59;5.83;;;3.30;;
9082;SDS011;4577;48.704;9.000;2023-05-19T03:26:25;8.00;;;3.87;;
9082;SDS011;4577;48.704;9.000;2023-05-19T03:28:53;12.60;;;3.20;;
9082;SDS011;4577;48.704;9.000;2023-05-19T03:31:18;6.40;;;3.30;;
9082;SDS011;4577;48.704;9.000;2023-05-19T03:33:44;6.27;;;3.60;;
9082;SDS011;4577;48.704;9.000;2023-05-19T03:36:10;18.13;;;7.83;;
9082;SDS011;4577;48.704;9.000;2023-05-19T03:38:36;41.80;;;24.13;;
9082;SDS011;4577;48.704;9.000;2023-05-19T03:41:02;17.83;;;9.53;;
9082;SDS011;4577;48.704;9.000;2023-05-19T03:43:28;14.03;;;4.47;;
9082;SDS011;4577;48.704;9.000;2023-05-19T03:45:53;6.07;;;3.07;;
9082;SDS011;4577;48.704;9.000;2023-05-19T03:48:20;6.70;;;3.17;;
9082;SDS011;4577;48.704;9.000;2023-05-19T03:50:45;9.57;;;3.60;;
9082;SDS011;4577;48.704;9.000;2023-05-19T03:53:12;12.83;;;3.50;;
9082;SDS011;4577;48.704;9.000;2023-05-19T03:55:38;7.50;;;3.30;;
9082;SDS011;4577;48.704;9.000;2023-05-19T03:58:03;11.13;;;3.20;;
9082;SDS011;4577;48.704;9.000;2023-05-19T04:00:30;5.30;;;3.40;;
9082;SDS011;4577;48.704;9.000;2023-05-19T04:02:55;9.70;;;4.10;;
9082;SDS011;4577;48.704;9.000;2023-05-19T04:05:21;6.90;;;3.23;;
9082;SDS011;4577;48.704;9.000;2023-05-19T04:07:47;8.40;;;3.97;;
9082;SDS011;4577;48.704;9.000;2023-05-19T04:10:13;11.57;;;3.30;;
9082;SDS011;4577;48.704;9.000;2023-05-19T04:12:38;6.10;;;3.70;;
9082;SDS011;4577;48.704;9.000;2023-05-19T04:15:04;10.30;;;3.93;;
9082;SDS011;4577;48.704;9.000;2023-05-19T04:17:30;6.50;;;3.87;;
9082;SDS011;4577;48.704;9.000;2023-05-19T04:19:56;10.27;;;3.37;;
9082;SDS011;4577;48.704;9.000;2023-05-19T04:22:22;8.97;;;3.70;;
9082;SDS011;4577;48.704;9.000;2023-05-19T04:24:47;7.03;;;3.63;;
9082;SDS011;4577;48.704;9.000;2023-05-19T04:27:15;8.50;;;3.80;;
9082;SDS011;4577;48.704;9.000;2023-05-19T04:29:41;10.50;;;3.90;;
9082;SDS011;4577;48.704;9.000;2023-05-19T04:32:07;16.40;;;4.10;;
9082;SDS011;4577;48.704;9.000;2023-05-19T04:34:34;6.73;;;3.37;;
9082;SDS011;4577;48.704;9.000;2023-05-19T04:37:04;8.47;;;3.57;;
9082;SDS011;4577;48.704;9.000;2023-05-19T04:39:34;5.17;;;3.40;;
9082;SDS011;4577;48.704;9.000;2023-05-19T04:42:02;6.70;;;3.90;;
9082;SDS011;4577;48.704;9.000;2023-05-19T04:44:28;10.23;;;3.40;;
9082;SDS011;4577;48.704;9.000;2023-05-19T04:46:55;5.93;;;3.53;;
9082;SDS011;4577;48.704;9.000;2023-05-19T04:49:22;12.33;;;3.73;;
9082;SDS011;4577;48.704;9.000;2023-05-19T04:51:52;7.23;;;3.50;;
9082;SDS011;4577;48.704;9.000;2023-05-19T04:54:18;5.63;;;3.30;;
9082;SDS011;4577;48.704;9.000;2023-05-19T04:56:44;7.87;;;3.73;;
9082;SDS011;4577;48.704;9.000;2023-05-19T04:59:09;8.97;;;3.70;;
9082;SDS011;4577;48.704;9.000;2023-05-19T05:01:35;12.83;;;4.00;;
9082;SDS011;4577;48.704;9.000;2023-05-19T05:04:04;7.20;;;3.40;;
9082;SDS011;4577;48.704;9.000;2023-05-19T05:06:30;9.63;;;3.60;;
9082;SDS011;4577;48.704;9.000;2023-05-19T05:08:56;11.57;;;3.77;;
9082;SDS011;4577;48.704;9.000;2023-05-19T05:11:22;8.43;;;4.07;;
9082;SDS011;4577;48.704;9.000;2023-05-19T05:13:48;8.60;;;3.80;;
9082;SDS011;4577;48.704;9.000;2023-05-19T05:16:14;9.23;;;3.60;;
9082;SDS011;4577;48.704;9.000;2023-05-19T05:18:40;12.17;;;3.70;;
9082;SDS011;4577;48.704;9.000;2023-05-19T05:21:06;12.03;;;4.10;;
9082;SDS011;4577;48.704;9.000;2023-05-19T05:23:32;10.00;;;3.70;;
9082;SDS011;4577;48.704;9.000;2023-05-19T05:25:58;5.10;;;3.30;;
9082;SDS011;4577;48.704;9.000;2023-05-19T05:28:24;8.00;;;3.33;;
9082;SDS011;4577;48.704;9.000;2023-05-19T05:30:50;7.77;;;3.60;;
9082;SDS011;4577;48.704;9.000;2023-05-19T05:33:15;12.53;;;3.70;;
9082;SDS011;4577;48.704;9.000;2023-05-19T05:35:42;8.17;;;4.00;;
9082;SDS011;4577;48.704;9.000;2023-05-19T05:38:07;10.63;;;4.57;;
9082;SDS011;4577;48.704;9.000;2023-05-19T05:40:35;8.43;;;3.90;;
9082;SDS011;4577;48.704;9.000;2023-05-19T05:43:01;8.00;;;3.87;;
9082;SDS011;4577;48.704;9.000;2023-05-19T05:45:26;7.40;;;3.80;;
9082;SDS011;4577;48.704;9.000;2023-05-19T05:47:52;7.90;;;3.90;;
9082;SDS011;4577;48.704;9.000;2023-05-19T05:50:18;6.70;;;3.80;;
9082;SDS011;4577;48.704;9.000;2023-05-19T05:52:45;11.93;;;4.23;;
9082;SDS011;4577;48.704;9.000;2023-05-19T05:55:11;19.30;;;5.00;;
9082;SDS011;4577;48.704;9.000;2023-05-19T05:57:38;7.13;;;4.33;;
9082;SDS011;4577;48.704;9.000;2023-05-19T06:00:06;9.60;;;4.03;;
9082;SDS011;4577;48.704;9.000;2023-05-19T06:02:43;9.37;;;4.23;;
9082;SDS011;4577;48.704;9.000;2023-05-19T06:05:11;7.93;;;4.10;;
9082;SDS011;4577;48.704;9.000;2023-05-19T06:07:38;7.77;;;4.00;;
9082;SDS011;4577;48.704;9.000;2023-05-19T06:10:07;8.83;;;4.10;;
9082;SDS011;4577;48.704;9.000;2023-05-19T06:12:36;7.93;;;4.90;;
9082;SDS011;4577;48.704;9.000;2023-05-19T06:15:07;17.10;;;4.60;;
9082;SDS011;4577;48.704;9.000;2023-05-19T06:17:32;15.53;;;5.50;;
9082;SDS011;4577;48.704;9.000;2023-05-19T06:19:59;8.93;;;4.53;;
9082;SDS011;4577;48.704;9.000;2023-05-19T06:22:26;10.60;;;5.10;;
9082;SDS011;4577;48.704;9.000;2023-05-19T06:24:52;10.73;;;4.90;;
9082;SDS011;4577;48.704;9.000;2023-05-19T06:27:18;14.20;;;4.97;;
9082;SDS011;4577;48.704;9.000;2023-05-19T06:29:44;32.07;;;14.57;;
9082;SDS011;4577;48.704;9.000;2023-05-19T06:32:09;20.87;;;6.20;;
9082;SDS011;4577;48.704;9.000;2023-05-19T06:34:35;13.57;;;6.60;;
9082;SDS011;4577;48.704;9.000;2023-05-19T06:37:02;9.57;;;4.07;;
9082;SDS011;4577;48.704;9.000;2023-05-19T06:39:28;11.90;;;4.83;;
9082;SDS011;4577;48.704;9.000;2023-05-19T06:41:53;11.77;;;6.87;;
9082;SDS011;4577;48.704;9.000;2023-05-19T06:44:19;13.03;;;5.33;;
9082;SDS011;4577;48.704;9.000;2023-05-19T06:46:45;14.00;;;7.40;;
9082;SDS011;4577;48.704;9.000;2023-05-19T06:49:10;16.20;;;6.80;;
9082;SDS011;4577;48.704;9.000;2023-05-19T06:51:36;13.03;;;4.50;;
9082;SDS011;4577;48.704;9.000;2023-05-19T06:54:02;5.30;;;4.00;;
9082;SDS011;4577;48.704;9.000;2023-05-19T06:56:27;9.63;;;4.50;;
9082;SDS011;4577;48.704;9.000;2023-05-19T06:58:53;9.43;;;4.43;;
9082;SDS011;4577;48.704;9.000;2023-05-19T07:01:18;13.87;;;4.63;;
9082;SDS011;4577;48.704;9.000;2023-05-19T07:03:44;8.10;;;4.80;;
9082;SDS011;4577;48.704;9.000;2023-05-19T07:06:10;8.13;;;4.80;;
9082;SDS011;4577;48.704;9.000;2023-05-19T07:08:37;16.43;;;4.60;;
9082;SDS011;4577;48.704;9.000;2023-05-19T07:11:03;7.20;;;4.67;;
9082;SDS011;4577;48.704;9.000;2023-05-19T07:13:28;11.33;;;5.10;;
9082;SDS011;4577;48.704;9.000;2023-05-19T07:15:54;10.63;;;3.63;;
9082;SDS011;4577;48.704;9.000;2023-05-19T07:18:20;7.03;;;4.60;;
9082;SDS011;4577;48.704;9.000;2023-05-19T07:20:46;11.10;;;4.40;;
9082;SDS011;4577;48.704;9.000;2023-05-19T07:23:12;9.20;;;4.40;;
9082;SDS011;4577;48.704;9.000;2023-05-19T07:25:37;36.90;;;11.40;;
9082;SDS011;4577;48.704;9.000;2023-05-19T07:28:03;15.67;;;6.77;;
9082;SDS011;4577;48.704;9.000;2023-05-19T07:30:29;25.47;;;13.23;;
9082;SDS011;4577;48.704;9.000;2023-05-19T07:32:54;18.27;;;6.47;;
9082;SDS011;4577;48.704;9.000;2023-05-19T07:35:20;12.93;;;6.40;;
9082;SDS011;4577;48.704;9.000;2023-05-19T07:37:49;18.23;;;10.10;;
9082;SDS011;4577;48.704;9.000;2023-05-19T07:40:15;15.60;;;8.47;;
9082;SDS011;4577;48.704;9.000;2023-05-19T07:42:41;12.50;;;6.10;;
9082;SDS011;4577;48.704;9.000;2023-05-19T07:45:08;10.80;;;5.30;;
9082;SDS011;4577;48.704;9.000;2023-05-19T07:47:34;9.40;;;4.80;;
9082;SDS011;4577;48.704;9.000;2023-05-19T07:50:00;10.53;;;4.57;;
9082;SDS011;4577;48.704;9.000;2023-05-19T07:52:26;10.80;;;4.70;;
9082;SDS011;4577;48.704;9.000;2023-05-19T07:54:52;12.40;;;4.50;;
9082;SDS011;4577;48.704;9.000;2023-05-19T07:57:17;9.97;;;5.60;;
9082;SDS011;4577;48.704;9.000;2023-05-19T07:59:43;11.87;;;5.10;;
9082;SDS011;4577;48.704;9.000;2023-05-19T08:02:09;19.90;;;5.40;;
9082;SDS011;4577;48.704;9.000;2023-05-19T08:04:35;13.93;;;5.37;;
9082;SDS011;4577;48.704;9.000;2023-05-19T08:07:01;10.40;;;4.93;;
9082;SDS011;4577;48.704;9.000;2023-05-19T08:09:27;10.50;;;4.80;;
9082;SDS011;4577;48.704;9.000;2023-05-19T08:11:53;7.87;;;4.80;;
9082;SDS011;4577;48.704;9.000;2023-05-19T08:14:18;11.10;;;4.77;;
9082;SDS011;4577;48.704;9.000;2023-05-19T08:16:47;13.40;;;5.50;;
9082;SDS011;4577;48.704;9.000;2023-05-19T08:19:13;10.87;;;4.70;;
9082;SDS011;4577;48.704;9.000;2023-05-19T08:21:39;13.00;;;5.33;;
9082;SDS011;4577;48.704;9.000;2023-05-19T08:24:06;8.90;;;4.63;;
9082;SDS011;4577;48.704;9.000;2023-05-19T08:26:32;9.30;;;4.43;;
9082;SDS011;4577;48.704;9.000;2023-05-19T08:28:58;12.57;;;5.00;;
9082;SDS011;4577;48.704;9.000;2023-05-19T08:31:24;13.33;;;6.17;;
9082;SDS011;4577;48.704;9.000;2023-05-19T08:33:50;11.03;;;4.70;;
9082;SDS011;4577;48.704;9.000;2023-05-19T08:36:16;19.93;;;6.77;;
9082;SDS011;4577;48.704;9.000;2023-05-19T08:38:42;14.37;;;4.77;;
9082;SDS011;4577;48.704;9.000;2023-05-19T08:41:09;27.83;;;14.03;;
9082;SDS011;4577;48.704;9.000;2023-05-19T08:43:34;14.73;;;6.40;;
9082;SDS011;4577;48.704;9.000;2023-05-19T08:46:01;9.70;;;4.50;;
9082;SDS011;4577;48.704;9.000;2023-05-19T08:48:28;17.27;;;5.27;;
9082;SDS011;4577;48.704;9.000;2023-05-19T08:53:55;14.27;;;4.70;;
9082;SDS011;4577;48.704;9.000;2023-05-19T08:56:27;9.83;;;5.20;;
9082;SDS011;4577;48.704;9.000;2023-05-19T08:58:54;13.80;;;7.10;;
9082;SDS011;4577;48.704;9.000;2023-05-19T09:01:23;31.33;;;14.00;;
9082;SDS011;4577;48.704;9.000;2023-05-19T09:03:50;16.03;;;5.33;;
9082;SDS011;4577;48.704;9.000;2023-05-19T09:06:16;20.57;;;5.80;;
9082;SDS011;4577;48.704;9.000;2023-05-19T09:08:42;11.70;;;5.13;;
9082;SDS011;4577;48.704;9.000;2023-05-19T09:11:09;13.60;;;5.37;;
9082;SDS011;4577;48.704;9.000;2023-05-19T09:13:34;10.10;;;5.10;;
9082;SDS011;4577;48.704;9.000;2023-05-19T09:16:00;8.10;;;3.90;;
9082;SDS011;4577;48.704;9.000;2023-05-19T09:18:27;10.60;;;4.33;;
9082;SDS011;4577;48.704;9.000;2023-05-19T09:21:00;10.80;;;4.33;;
9082;SDS011;4577;48.704;9.000;2023-05-19T09:23:29;11.73;;;4.50;;
9082;SDS011;4577;48.704;9.000;2023-05-19T09:25:59;10.67;;;4.13;;
9082;SDS011;4577;48.704;9.000;2023-05-19T09:28:31;13.67;;;4.53;;
9082;SDS011;4577;48.704;9.000;2023-05-19T09:31:01;14.00;;;7.27;;
9082;SDS011;4577;48.704;9.000;2023-05-19T09:33:28;12.70;;;7.80;;
9082;SDS011;4577;48.704;9.000;2023-05-19T09:35:56;12.67;;;5.73;;
9082;SDS011;4577;48.704;9.000;2023-05-19T09:38:28;7.23;;;4.27;;
9082;SDS011;4577;48.704;9.000;2023-05-19T09:40:57;9.87;;;4.63;;
9082;SDS011;4577;48.704;9.000;2023-05-19T09:43:27;10.67;;;5.90;;
9082;SDS011;4577;48.704;9.000;2023-05-19T09:46:01;22.40;;;9.90;;
9082;SDS011;4577;48.704;9.000;2023-05-19T09:48:27;11.10;;;5.57;;
9082;SDS011;4577;48.704;9.000;2023-05-19T09:50:54;10.50;;;4.53;;
9082;SDS011;4577;48.704;9.000;2023-05-19T09:53:21;16.67;;;4.60;;
9082;SDS011;4577;48.704;9.000;2023-05-19T09:55:48;14.00;;;6.07;;
9082;SDS011;4577;48.704;9.000;2023-05-19T09:58:15;12.00;;;5.20;;
9082;SDS011;4577;48.704;9.000;2023-05-19T10:00:42;15.63;;;5.30;;
9082;SDS011;4577;48.704;9.000;2023-05-19T10:03:09;12.80;;;6.03;;
9082;SDS011;4577;48.704;9.000;2023-05-19T10:05:36;11.27;;;6.07;;
9082;SDS011;4577;48.704;9.000;2023-05-19T10:08:02;18.43;;;5.60;;
9082;SDS011;4577;48.704;9.000;2023-05-19T10:10:31;14.93;;;4.73;;
9082;SDS011;4577;48.704;9.000;2023-05-19T10:12:58;9.07;;;5.40;;
9082;SDS011;4577;48.704;9.000;2023-05-19T10:15:24;11.57;;;6.97;;
9082;SDS011;4577;48.704;9.000;2023-05-19T10:17:51;8.47;;;5.37;;
9082;SDS011;4577;48.704;9.000;2023-05-19T10:20:17;14.03;;;5.70;;
9082;SDS011;4577;48.704;9.000;2023-05-19T10:22:44;30.47;;;14.67;;
9082;SDS011;4577;48.704;9.000;2023-05-19T10:25:11;64.60;;;37.90;;
9082;SDS011;4577;48.704;9.000;2023-05-19T10:27:43;50.50;;;28.70;;
9082;SDS011;4577;48.704;9.000;2023-05-19T10:30:14;16.30;;;7.97;;
9082;SDS011;4577;48.704;9.000;2023-05-19T10:32:45;11.77;;;5.70;;
9082;SDS011;4577;48.704;9.000;2023-05-19T10:46:49;19.20;;;11.27;;
9082;SDS011;4577;48.704;9.000;2023-05-19T10:49:20;19.83;;;11.47;;
9082;SDS011;4577;48.704;9.000;2023-05-19T10:51:47;16.73;;;8.33;;
9082;SDS011;4577;48.704;9.000;2023-05-19T10:54:13;20.00;;;10.10;;
9082;SDS011;4577;48.704;9.000;2023-05-19T10:56:41;7.07;;;4.70;;
9082;SDS011;4577;48.704;9.000;2023-05-19T10:59:29;21.70;;;13.10;;
9082;SDS011;4577;48.704;9.000;2023-05-19T11:01:56;12.73;;;5.03;;
9082;SDS011;4577;48.704;9.000;2023-05-19T11:04:44;10.27;;;5.50;;
9082;SDS011;4577;48.704;9.000;2023-05-19T11:07:18;55.07;;;29.90;;
9082;SDS011;4577;48.704;9.000;2023-05-19T11:09:49;49.40;;;24.93;;
9082;SDS011;4577;48.704;9.000;2023-05-19T11:12:18;16.00;;;7.33;;
9082;SDS011;4577;48.704;9.000;2023-05-19T11:14:46;28.50;;;14.53;;
9082;SDS011;4577;48.704;9.000;2023-05-19T11:17:12;10.63;;;4.83;;
9082;SDS011;4577;48.704;9.000;2023-05-19T11:19:39;13.00;;;6.53;;
9082;SDS011;4577;48.704;9.000;2023-05-19T11:22:26;12.63;;;6.50;;
9082;SDS011;4577;48.704;9.000;2023-05-19T11:24:55;33.93;;;21.27;;
9082;SDS011;4577;48.704;9.000;2023-05-19T11:29:55;13.70;;;7.80;;
9082;SDS011;4577;48.704;9.000;2023-05-19T11:32:26;17.30;;;10.00;;
9082;SDS011;4577;48.704;9.000;2023-05-19T11:34:54;10.10;;;6.20;;
9082;SDS011;4577;48.704;9.000;2023-05-19T11:37:20;10.50;;;6.10;;
9082;SDS011;4577;48.704;9.000;2023-05-19T11:39:46;10.17;;;4.83;;
9082;SDS011;4577;48.704;9.000;2023-05-19T11:42:12;10.17;;;4.97;;
9082;SDS011;4577;48.704;9.000;2023-05-19T11:44:38;9.73;;;4.10;;
9082;SDS011;4577;48.704;9.000;2023-05-19T11:47:05;17.97;;;9.73;;
9082;SDS011;4577;48.704;9.000;2023-05-19T11:49:31;8.03;;;4.70;;
9082;SDS011;4577;48.704;9.000;2023-05-19T11:51:58;11.13;;;7.50;;
9082;SDS011;4577;48.704;9.000;2023-05-19T11:54:30;36.07;;;19.63;;
9082;SDS011;4577;48.704;9.000;2023-05-19T11:56:59;19.77;;;11.57;;
9082;SDS011;4577;48.704;9.000;2023-05-19T11:59:32;12.73;;;5.20;;
9082;SDS011;4577;48.704;9.000;2023-05-19T12:02:06;12.60;;;8.20;;
9082;SDS011;4577;48.704;9.000;2023-05-19T12:04:49;12.47;;;5.33;;
9082;SDS011;4577;48.704;9.000;2023-05-19T12:07:15;7.73;;;4.43;;
9082;SDS011;4577;48.704;9.000;2023-05-19T12:09:47;9.60;;;5.07;;
9082;SDS011;4577;48.704;9.000;2023-05-19T12:12:20;36.30;;;19.20;;
9082;SDS011;4577;48.704;9.000;2023-05-19T12:14:47;39.20;;;21.23;;
9082;SDS011;4577;48.704;9.000;2023-05-19T12:17:18;17.37;;;8.53;;
9082;SDS011;4577;48.704;9.000;2023-05-19T12:19:45;10.70;;;5.33;;
9082;SDS011;4577;48.704;9.000;2023-05-19T12:22:12;8.07;;;4.60;;
9082;SDS011;4577;48.704;9.000;2023-05-19T12:24:40;14.87;;;5.10;;
9082;SDS011;4577;48.704;9.000;2023-05-19T12:27:17;21.63;;;6.67;;
9082;SDS011;4577;48.704;9.000;2023-05-19T12:29:51;8.93;;;4.67;;
9082;SDS011;4577;48.704;9.000;2023-05-19T12:32:22;14.93;;;5.50;;
9082;SDS011;4577;48.704;9.000;2023-05-19T12:34:52;9.80;;;5.70;;
9082;SDS011;4577;48.704;9.000;2023-05-19T12:37:20;14.53;;;7.07;;
9082;SDS011;4577;48.704;9.000;2023-05-19T12:39:48;10.77;;;6.20;;
9082;SDS011;4577;48.704;9.000;2023-05-19T12:42:14;59.40;;;33.43;;
9082;SDS011;4577;48.704;9.000;2023-05-19T12:45:01;41.17;;;19.60;;
9082;SDS011;4577;48.704;9.000;2023-05-19T12:47:34;27.90;;;16.47;;
9082;SDS011;4577;48.704;9.000;2023-05-19T12:52:32;14.17;;;6.67;;
9082;SDS011;4577;48.704;9.000;2023-05-19T12:55:02;22.33;;;9.47;;
9082;SDS011;4577;48.704;9.000;2023-05-19T12:57:34;48.90;;;24.90;;
9082;SDS011;4577;48.704;9.000;2023-05-19T13:00:05;25.50;;;12.50;;
9082;SDS011;4577;48.704;9.000;2023-05-19T13:05:23;42.67;;;18.57;;
9082;SDS011;4577;48.704;9.000;2023-05-19T13:10:18;55.13;;;30.00;;
9082;SDS011;4577;48.704;9.000;2023-05-19T13:12:44;40.00;;;22.10;;
9082;SDS011;4577;48.704;9.000;2023-05-19T13:15:10;22.07;;;13.03;;
9082;SDS011;4577;48.704;9.000;2023-05-19T13:17:36;21.60;;;8.60;;
9082;SDS011;4577;48.704;9.000;2023-05-19T13:20:02;13.23;;;7.83;;
9082;SDS011;4577;48.704;9.000;2023-05-19T13:22:28;16.37;;;6.03;;
9082;SDS011;4577;48.704;9.000;2023-05-19T13:24:54;27.90;;;14.40;;
9082;SDS011;4577;48.704;9.000;2023-05-19T13:27:23;30.60;;;15.90;;
9082;SDS011;4577;48.704;9.000;2023-05-19T13:29:49;70.23;;;33.90;;
9082;SDS011;4577;48.704;9.000;2023-05-19T13:32:15;99.77;;;60.80;;
9082;SDS011;4577;48.704;9.000;2023-05-19T13:34:40;56.97;;;30.73;;
9082;SDS011;4577;48.704;9.000;2023-05-19T13:37:06;21.50;;;11.47;;
9082;SDS011;4577;48.704;9.000;2023-05-19T13:39:33;31.57;;;15.97;;
9082;SDS011;4577;48.704;9.000;2023-05-19T13:41:59;26.07;;;13.27;;
9082;SDS011;4577;48.704;9.000;2023-05-19T13:44:25;37.77;;;18.40;;
9082;SDS011;4577;48.704;9.000;2023-05-19T13:46:51;23.33;;;12.73;;
9082;SDS011;4577;48.704;9.000;2023-05-19T13:49:17;18.63;;;10.37;;
9082;SDS011;4577;48.704;9.000;2023-05-19T13:51:42;18.50;;;9.97;;
9082;SDS011;4577;48.704;9.000;2023-05-19T13:54:08;34.60;;;16.07;;
9082;SDS011;4577;48.704;9.000;2023-05-19T13:56:34;17.20;;;8.30;;
9082;SDS011;4577;48.704;9.000;2023-05-19T13:59:00;21.80;;;8.90;;
9082;SDS011;4577;48.704;9.000;2023-05-19T14:01:28;11.87;;;5.97;;
9082;SDS011;4577;48.704;9.000;2023-05-19T14:03:53;14.13;;;5.87;;
9082;SDS011;4577;48.704;9.000;2023-05-19T14:06:19;11.97;;;8.07;;
9082;SDS011;4577;48.704;9.000;2023-05-19T14:08:45;17.13;;;5.30;;
9082;SDS011;4577;48.704;9.000;2023-05-19T14:11:17;11.63;;;5.57;;
9082;SDS011;4577;48.704;9.000;2023-05-19T14:13:44;17.20;;;7.50;;
9082;SDS011;4577;48.704;9.000;2023-05-19T14:16:10;10.43;;;5.40;;
9082;SDS011;4577;48.704;9.000;2023-05-19T14:18:36;18.50;;;9.70;;
9082;SDS011;4577;48.704;9.000;2023-05-19T14:21:01;12.93;;;6.77;;
9082;SDS011;4577;48.704;9.000;2023-05-19T14:23:27;23.47;;;7.97;;
9082;SDS011;4577;48.704;9.000;2023-05-19T14:25:54;12.77;;;5.23;;
9082;SDS011;4577;48.704;9.000;2023-05-19T14:28:20;11.50;;;4.90;;
9082;SDS011;4577;48.704;9.000;2023-05-19T14:30:46;7.70;;;5.03;;
9082;SDS011;4577;48.704;9.000;2023-05-19T14:33:11;12.20;;;4.80;;
9082;SDS011;4577;48.704;9.000;2023-05-19T14:35:37;20.17;;;9.83;;
9082;SDS011;4577;48.704;9.000;2023-05-19T14:38:03;27.87;;;14.50;;
9082;SDS011;4577;48.704;9.000;2023-05-19T14:40:28;10.90;;;5.20;;
9082;SDS011;4577;48.704;9.000;2023-05-19T14:42:54;11.13;;;5.27;;
9082;SDS011;4577;48.704;9.000;2023-05-19T14:45:20;12.63;;;5.00;;
9082;SDS011;4577;48.704;9.000;2023-05-19T14:47:45;11.47;;;4.80;;
9082;SDS011;4577;48.704;9.000;2023-05-19T14:50:11;11.53;;;5.63;;
9082;SDS011;4577;48.704;9.000;2023-05-19T14:52:37;20.47;;;6.90;;
9082;SDS011;4577;48.704;9.000;2023-05-19T14:55:03;23.87;;;11.53;;
9082;SDS011;4577;48.704;9.000;2023-05-19T14:57:29;26.50;;;14.00;;
9082;SDS011;4577;48.704;9.000;2023-05-19T14:59:54;18.07;;;9.17;;
9082;SDS011;4577;48.704;9.000;2023-05-19T15:02:20;16.10;;;9.27;;
9082;SDS011;4577;48.704;9.000;2023-05-19T15:04:46;20.83;;;8.50;;
9082;SDS011;4577;48.704;9.000;2023-05-19T15:07:11;30.90;;;12.77;;
9082;SDS011;4577;48.704;9.000;2023-05-19T15:09:38;29.63;;;15.43;;
9082;SDS011;4577;48.704;9.000;2023-05-19T15:12:03;23.30;;;8.80;;
9082;SDS011;4577;48.704;9.000;2023-05-19T15:14:29;23.10;;;11.00;;
9082;SDS011;4577;48.704;9.000;2023-05-19T15:16:55;19.73;;;10.90;;
9082;SDS011;4577;48.704;9.000;2023-05-19T15:19:20;24.20;;;13.77;;
9082;SDS011;4577;48.704;9.000;2023-05-19T15:21:46;34.30;;;19.07;;
9082;SDS011;4577;48.704;9.000;2023-05-19T15:24:14;11.70;;;6.30;;
9082;SDS011;4577;48.704;9.000;2023-05-19T15:26:40;24.80;;;11.37;;
9082;SDS011;4577;48.704;9.000;2023-05-19T15:29:05;67.63;;;33.40;;
9082;SDS011;4577;48.704;9.000;2023-05-19T15:31:31;53.47;;;25.30;;
9082;SDS011;4577;48.704;9.000;2023-05-19T15:33:57;55.70;;;28.07;;
9082;SDS011;4577;48.704;9.000;2023-05-19T15:36:22;91.43;;;43.37;;
9082;SDS011;4577;48.704;9.000;2023-05-19T15:38:48;43.43;;;20.23;;
9082;SDS011;4577;48.704;9.000;2023-05-19T15:41:14;33.93;;;17.53;;
9082;SDS011;4577;48.704;9.000;2023-05-19T15:43:39;20.83;;;11.27;;
9082;SDS011;4577;48.704;9.000;2023-05-19T15:46:05;19.67;;;11.60;;